KALS

San Luis Valley Regional / Bergman Field Airport

Alamosa, Colorado, USA
METAR KALS 232152Z AUTO 22024G37KT 10SM CLR 04/M15 A2986 RMK AO2 PK WND 22037/2143 SLP118 T00441150
Observed Flight Rules
Feb-23 @ 21:52 UTC (40 minutes ago) Visual Flight Rules
Wind Visibility Clouds
220° at 24 knots
 Gusting to 37 knots
10 miles
  • Clear skies
Temperatures Readings
Current 4°C / 39°F
Dewpoint -15°C / 5°F
Humidity 24%
Altimeter 29.86" Hg
Pressure 1011.8 hPa
Elevation 2299
METAR KALS 232152Z AUTO 22024G37KT 10SM CLR 04/M15 A2986 RMK AO2 PK WND 22037/2143 SLP118 T00441150
Observed Flight Rules
Feb-23 @ 21:52 UTC
(40 minutes ago)
VFR
Wind Visibility
220° at 24 knots
 Gusting to 37 knots
10 miles
Clouds
  • Clear skies
Temperature Dewpoint
4°C / 39°F -15°C / 5°F
Humidity Altimeter Pressure
24% 29.86" Hg 1011.8 hPa